sensor_id;sensor_type;location;lat;lon;timestamp;P1;durP1;ratioP1;P2;durP2;ratioP2
12135;SDS011;6131;56.420;15.548;2024-02-14T00:01:53;16.93;;;7.57;;
12135;SDS011;6131;56.420;15.548;2024-02-14T00:04:19;20.87;;;7.67;;
12135;SDS011;6131;56.420;15.548;2024-02-14T00:06:45;17.53;;;7.30;;
12135;SDS011;6131;56.420;15.548;2024-02-14T00:09:11;16.90;;;7.70;;
12135;SDS011;6131;56.420;15.548;2024-02-14T00:11:37;22.40;;;7.77;;
12135;SDS011;6131;56.420;15.548;2024-02-14T00:14:03;19.77;;;6.83;;
12135;SDS011;6131;56.420;15.548;2024-02-14T00:16:29;16.03;;;7.50;;
12135;SDS011;6131;56.420;15.548;2024-02-14T00:18:56;17.33;;;7.00;;
12135;SDS011;6131;56.420;15.548;2024-02-14T00:21:22;19.43;;;7.63;;
12135;SDS011;6131;56.420;15.548;2024-02-14T00:23:49;21.40;;;7.20;;
12135;SDS011;6131;56.420;15.548;2024-02-14T00:26:15;21.90;;;7.57;;
12135;SDS011;6131;56.420;15.548;2024-02-14T00:28:41;19.23;;;7.30;;
12135;SDS011;6131;56.420;15.548;2024-02-14T00:31:07;21.47;;;7.07;;
12135;SDS011;6131;56.420;15.548;2024-02-14T00:33:33;23.07;;;7.03;;
12135;SDS011;6131;56.420;15.548;2024-02-14T00:35:59;20.97;;;7.10;;
12135;SDS011;6131;56.420;15.548;2024-02-14T00:38:25;15.73;;;6.70;;
12135;SDS011;6131;56.420;15.548;2024-02-14T00:40:51;21.10;;;7.00;;
12135;SDS011;6131;56.420;15.548;2024-02-14T00:43:17;17.73;;;6.70;;
12135;SDS011;6131;56.420;15.548;2024-02-14T00:45:43;16.83;;;6.20;;
12135;SDS011;6131;56.420;15.548;2024-02-14T00:48:09;17.03;;;6.93;;
12135;SDS011;6131;56.420;15.548;2024-02-14T00:50:35;25.73;;;11.63;;
12135;SDS011;6131;56.420;15.548;2024-02-14T00:53:01;19.27;;;7.23;;
12135;SDS011;6131;56.420;15.548;2024-02-14T00:55:27;15.80;;;6.67;;
12135;SDS011;6131;56.420;15.548;2024-02-14T00:57:53;16.80;;;6.90;;
12135;SDS011;6131;56.420;15.548;2024-02-14T01:00:19;15.00;;;6.40;;
12135;SDS011;6131;56.420;15.548;2024-02-14T01:02:45;16.63;;;7.87;;
12135;SDS011;6131;56.420;15.548;2024-02-14T01:05:11;16.70;;;7.20;;
12135;SDS011;6131;56.420;15.548;2024-02-14T01:07:37;18.30;;;6.57;;
12135;SDS011;6131;56.420;15.548;2024-02-14T01:10:03;22.90;;;7.80;;
12135;SDS011;6131;56.420;15.548;2024-02-14T01:12:29;16.47;;;7.10;;
12135;SDS011;6131;56.420;15.548;2024-02-14T01:14:55;14.67;;;6.97;;
12135;SDS011;6131;56.420;15.548;2024-02-14T01:17:21;15.67;;;7.50;;
12135;SDS011;6131;56.420;15.548;2024-02-14T01:19:47;17.17;;;7.17;;
12135;SDS011;6131;56.420;15.548;2024-02-14T01:22:13;18.20;;;7.13;;
12135;SDS011;6131;56.420;15.548;2024-02-14T01:24:42;23.83;;;7.30;;
12135;SDS011;6131;56.420;15.548;2024-02-14T01:27:08;16.70;;;6.53;;
12135;SDS011;6131;56.420;15.548;2024-02-14T01:29:34;18.47;;;6.87;;
12135;SDS011;6131;56.420;15.548;2024-02-14T01:32:00;18.53;;;6.30;;
12135;SDS011;6131;56.420;15.548;2024-02-14T01:34:26;15.83;;;6.80;;
12135;SDS011;6131;56.420;15.548;2024-02-14T01:36:53;15.53;;;7.57;;
12135;SDS011;6131;56.420;15.548;2024-02-14T01:39:19;16.20;;;6.53;;
12135;SDS011;6131;56.420;15.548;2024-02-14T01:41:47;18.37;;;7.30;;
12135;SDS011;6131;56.420;15.548;2024-02-14T01:44:17;22.13;;;7.10;;
12135;SDS011;6131;56.420;15.548;2024-02-14T01:46:43;21.97;;;7.00;;
12135;SDS011;6131;56.420;15.548;2024-02-14T01:49:09;15.47;;;6.97;;
12135;SDS011;6131;56.420;15.548;2024-02-14T01:51:37;19.23;;;7.30;;
12135;SDS011;6131;56.420;15.548;2024-02-14T01:54:03;20.50;;;6.63;;
12135;SDS011;6131;56.420;15.548;2024-02-14T01:56:30;19.30;;;6.97;;
12135;SDS011;6131;56.420;15.548;2024-02-14T01:58:56;11.63;;;5.80;;
12135;SDS011;6131;56.420;15.548;2024-02-14T02:01:23;16.80;;;5.47;;
12135;SDS011;6131;56.420;15.548;2024-02-14T02:03:49;11.17;;;5.30;;
12135;SDS011;6131;56.420;15.548;2024-02-14T02:06:16;11.50;;;5.60;;
12135;SDS011;6131;56.420;15.548;2024-02-14T02:08:45;10.33;;;4.90;;
12135;SDS011;6131;56.420;15.548;2024-02-14T02:11:11;11.13;;;5.13;;
12135;SDS011;6131;56.420;15.548;2024-02-14T02:13:37;9.97;;;4.17;;
12135;SDS011;6131;56.420;15.548;2024-02-14T02:16:06;9.33;;;4.50;;
12135;SDS011;6131;56.420;15.548;2024-02-14T02:18:33;11.87;;;4.90;;
12135;SDS011;6131;56.420;15.548;2024-02-14T02:20:59;10.83;;;4.60;;
12135;SDS011;6131;56.420;15.548;2024-02-14T02:23:25;11.73;;;5.23;;
12135;SDS011;6131;56.420;15.548;2024-02-14T02:25:51;10.37;;;4.60;;
12135;SDS011;6131;56.420;15.548;2024-02-14T02:28:17;6.97;;;3.83;;
12135;SDS011;6131;56.420;15.548;2024-02-14T02:30:43;15.40;;;5.13;;
12135;SDS011;6131;56.420;15.548;2024-02-14T02:33:11;10.90;;;4.27;;
12135;SDS011;6131;56.420;15.548;2024-02-14T02:35:39;11.37;;;4.40;;
12135;SDS011;6131;56.420;15.548;2024-02-14T02:38:07;7.13;;;4.23;;
12135;SDS011;6131;56.420;15.548;2024-02-14T02:40:33;8.87;;;4.27;;
12135;SDS011;6131;56.420;15.548;2024-02-14T02:42:59;7.87;;;4.00;;
12135;SDS011;6131;56.420;15.548;2024-02-14T02:45:25;12.70;;;4.20;;
12135;SDS011;6131;56.420;15.548;2024-02-14T02:47:51;7.73;;;4.30;;
12135;SDS011;6131;56.420;15.548;2024-02-14T02:50:17;8.83;;;5.03;;
12135;SDS011;6131;56.420;15.548;2024-02-14T02:52:44;12.87;;;5.63;;
12135;SDS011;6131;56.420;15.548;2024-02-14T02:55:11;15.77;;;5.90;;
12135;SDS011;6131;56.420;15.548;2024-02-14T02:57:37;12.30;;;5.17;;
12135;SDS011;6131;56.420;15.548;2024-02-14T03:00:04;11.23;;;5.30;;
12135;SDS011;6131;56.420;15.548;2024-02-14T03:02:32;18.13;;;5.70;;
12135;SDS011;6131;56.420;15.548;2024-02-14T03:04:59;11.60;;;5.17;;
12135;SDS011;6131;56.420;15.548;2024-02-14T03:07:25;6.93;;;4.13;;
12135;SDS011;6131;56.420;15.548;2024-02-14T03:09:51;12.10;;;5.20;;
12135;SDS011;6131;56.420;15.548;2024-02-14T03:12:17;11.97;;;4.87;;
12135;SDS011;6131;56.420;15.548;2024-02-14T03:14:44;17.67;;;5.20;;
12135;SDS011;6131;56.420;15.548;2024-02-14T03:17:10;12.40;;;4.97;;
12135;SDS011;6131;56.420;15.548;2024-02-14T03:19:36;12.07;;;5.20;;
12135;SDS011;6131;56.420;15.548;2024-02-14T03:22:04;14.40;;;5.40;;
12135;SDS011;6131;56.420;15.548;2024-02-14T03:24:34;22.67;;;6.57;;
12135;SDS011;6131;56.420;15.548;2024-02-14T03:27:02;18.17;;;5.50;;
12135;SDS011;6131;56.420;15.548;2024-02-14T03:29:29;14.50;;;5.47;;
12135;SDS011;6131;56.420;15.548;2024-02-14T03:31:55;18.83;;;6.77;;
12135;SDS011;6131;56.420;15.548;2024-02-14T03:34:23;14.27;;;5.67;;
12135;SDS011;6131;56.420;15.548;2024-02-14T03:36:50;25.73;;;6.40;;
12135;SDS011;6131;56.420;15.548;2024-02-14T03:39:16;20.80;;;7.33;;
12135;SDS011;6131;56.420;15.548;2024-02-14T03:41:42;31.17;;;9.10;;
12135;SDS011;6131;56.420;15.548;2024-02-14T03:44:08;33.80;;;9.27;;
12135;SDS011;6131;56.420;15.548;2024-02-14T03:46:34;27.30;;;9.63;;
12135;SDS011;6131;56.420;15.548;2024-02-14T03:49:00;25.13;;;9.53;;
12135;SDS011;6131;56.420;15.548;2024-02-14T03:51:26;26.00;;;9.63;;
12135;SDS011;6131;56.420;15.548;2024-02-14T03:53:52;31.30;;;11.33;;
12135;SDS011;6131;56.420;15.548;2024-02-14T03:56:18;36.17;;;11.13;;
12135;SDS011;6131;56.420;15.548;2024-02-14T03:58:44;31.43;;;10.77;;
12135;SDS011;6131;56.420;15.548;2024-02-14T04:01:12;23.00;;;11.60;;
12135;SDS011;6131;56.420;15.548;2024-02-14T04:03:38;36.97;;;12.70;;
12135;SDS011;6131;56.420;15.548;2024-02-14T04:06:05;35.63;;;12.77;;
12135;SDS011;6131;56.420;15.548;2024-02-14T04:08:31;34.80;;;13.37;;
12135;SDS011;6131;56.420;15.548;2024-02-14T04:10:58;21.97;;;11.27;;
12135;SDS011;6131;56.420;15.548;2024-02-14T04:13:24;38.27;;;14.33;;
12135;SDS011;6131;56.420;15.548;2024-02-14T04:15:50;31.23;;;12.30;;
12135;SDS011;6131;56.420;15.548;2024-02-14T04:18:16;30.13;;;11.07;;
12135;SDS011;6131;56.420;15.548;2024-02-14T04:20:43;34.43;;;14.83;;
12135;SDS011;6131;56.420;15.548;2024-02-14T04:23:09;29.63;;;11.90;;
12135;SDS011;6131;56.420;15.548;2024-02-14T04:25:35;56.63;;;13.80;;
12135;SDS011;6131;56.420;15.548;2024-02-14T04:28:04;41.23;;;15.30;;
12135;SDS011;6131;56.420;15.548;2024-02-14T04:30:31;36.93;;;13.03;;
12135;SDS011;6131;56.420;15.548;2024-02-14T04:32:57;71.10;;;13.97;;
12135;SDS011;6131;56.420;15.548;2024-02-14T04:35:23;40.50;;;13.87;;
12135;SDS011;6131;56.420;15.548;2024-02-14T04:37:49;29.30;;;13.57;;
12135;SDS011;6131;56.420;15.548;2024-02-14T04:40:16;72.70;;;16.63;;
12135;SDS011;6131;56.420;15.548;2024-02-14T04:42:43;86.67;;;16.80;;
12135;SDS011;6131;56.420;15.548;2024-02-14T04:45:09;65.70;;;14.77;;
12135;SDS011;6131;56.420;15.548;2024-02-14T04:47:35;91.90;;;16.67;;
12135;SDS011;6131;56.420;15.548;2024-02-14T04:50:01;104.47;;;17.77;;
12135;SDS011;6131;56.420;15.548;2024-02-14T04:52:29;39.07;;;14.33;;
12135;SDS011;6131;56.420;15.548;2024-02-14T04:54:55;122.50;;;19.47;;
12135;SDS011;6131;56.420;15.548;2024-02-14T04:57:21;223.63;;;22.63;;
12135;SDS011;6131;56.420;15.548;2024-02-14T04:59:47;228.67;;;22.00;;
12135;SDS011;6131;56.420;15.548;2024-02-14T05:02:13;160.33;;;19.53;;
12135;SDS011;6131;56.420;15.548;2024-02-14T05:04:39;167.87;;;21.33;;
12135;SDS011;6131;56.420;15.548;2024-02-14T05:07:05;400.90;;;29.73;;
12135;SDS011;6131;56.420;15.548;2024-02-14T05:09:32;75.07;;;16.93;;
12135;SDS011;6131;56.420;15.548;2024-02-14T05:11:58;116.50;;;21.00;;
12135;SDS011;6131;56.420;15.548;2024-02-14T05:14:25;91.07;;;18.93;;
12135;SDS011;6131;56.420;15.548;2024-02-14T05:16:56;195.03;;;23.63;;
12135;SDS011;6131;56.420;15.548;2024-02-14T05:19:22;230.97;;;24.20;;
12135;SDS011;6131;56.420;15.548;2024-02-14T05:21:48;216.90;;;24.43;;
12135;SDS011;6131;56.420;15.548;2024-02-14T05:24:14;208.43;;;25.23;;
12135;SDS011;6131;56.420;15.548;2024-02-14T05:26:40;212.20;;;22.63;;
12135;SDS011;6131;56.420;15.548;2024-02-14T05:29:06;225.93;;;23.70;;
12135;SDS011;6131;56.420;15.548;2024-02-14T05:31:42;212.03;;;22.40;;
12135;SDS011;6131;56.420;15.548;2024-02-14T05:34:09;167.83;;;22.13;;
12135;SDS011;6131;56.420;15.548;2024-02-14T05:36:35;278.50;;;26.63;;
12135;SDS011;6131;56.420;15.548;2024-02-14T05:39:01;254.10;;;23.20;;
12135;SDS011;6131;56.420;15.548;2024-02-14T05:41:27;240.90;;;23.57;;
12135;SDS011;6131;56.420;15.548;2024-02-14T05:43:55;228.00;;;25.17;;
12135;SDS011;6131;56.420;15.548;2024-02-14T05:46:21;148.30;;;20.80;;
12135;SDS011;6131;56.420;15.548;2024-02-14T05:48:47;197.73;;;22.07;;
12135;SDS011;6131;56.420;15.548;2024-02-14T05:51:13;246.37;;;25.27;;
12135;SDS011;6131;56.420;15.548;2024-02-14T05:53:39;271.07;;;24.17;;
12135;SDS011;6131;56.420;15.548;2024-02-14T05:56:05;296.37;;;25.90;;
12135;SDS011;6131;56.420;15.548;2024-02-14T05:58:31;204.47;;;23.30;;
12135;SDS011;6131;56.420;15.548;2024-02-14T06:00:57;198.97;;;21.50;;
12135;SDS011;6131;56.420;15.548;2024-02-14T06:03:23;194.47;;;21.73;;
12135;SDS011;6131;56.420;15.548;2024-02-14T06:05:50;360.37;;;28.07;;
12135;SDS011;6131;56.420;15.548;2024-02-14T06:08:16;370.07;;;27.30;;
12135;SDS011;6131;56.420;15.548;2024-02-14T06:10:42;274.10;;;23.20;;
12135;SDS011;6131;56.420;15.548;2024-02-14T06:13:08;337.53;;;26.23;;
12135;SDS011;6131;56.420;15.548;2024-02-14T06:15:34;397.17;;;30.03;;
12135;SDS011;6131;56.420;15.548;2024-02-14T06:18:00;220.23;;;22.07;;
12135;SDS011;6131;56.420;15.548;2024-02-14T06:20:26;341.90;;;27.37;;
12135;SDS011;6131;56.420;15.548;2024-02-14T06:22:53;125.00;;;19.37;;
12135;SDS011;6131;56.420;15.548;2024-02-14T06:25:19;174.13;;;21.20;;
12135;SDS011;6131;56.420;15.548;2024-02-14T06:27:46;406.57;;;28.87;;
12135;SDS011;6131;56.420;15.548;2024-02-14T06:30:12;188.63;;;21.00;;
12135;SDS011;6131;56.420;15.548;2024-02-14T06:32:38;359.80;;;25.73;;
12135;SDS011;6131;56.420;15.548;2024-02-14T06:35:04;278.77;;;23.57;;
12135;SDS011;6131;56.420;15.548;2024-02-14T06:37:30;295.33;;;23.37;;
12135;SDS011;6131;56.420;15.548;2024-02-14T06:39:56;140.77;;;18.80;;
12135;SDS011;6131;56.420;15.548;2024-02-14T06:42:22;188.00;;;20.50;;
12135;SDS011;6131;56.420;15.548;2024-02-14T06:44:48;258.80;;;22.83;;
12135;SDS011;6131;56.420;15.548;2024-02-14T06:47:14;160.63;;;19.70;;
12135;SDS011;6131;56.420;15.548;2024-02-14T06:49:40;117.40;;;17.50;;
12135;SDS011;6131;56.420;15.548;2024-02-14T06:52:06;269.73;;;23.63;;
12135;SDS011;6131;56.420;15.548;2024-02-14T06:54:32;283.67;;;22.30;;
12135;SDS011;6131;56.420;15.548;2024-02-14T06:56:58;228.37;;;21.57;;
12135;SDS011;6131;56.420;15.548;2024-02-14T06:59:25;193.50;;;21.00;;
12135;SDS011;6131;56.420;15.548;2024-02-14T07:01:51;434.70;;;28.93;;
12135;SDS011;6131;56.420;15.548;2024-02-14T07:04:20;390.43;;;27.60;;
12135;SDS011;6131;56.420;15.548;2024-02-14T07:06:50;196.83;;;20.63;;
12135;SDS011;6131;56.420;15.548;2024-02-14T07:09:16;146.37;;;17.87;;
12135;SDS011;6131;56.420;15.548;2024-02-14T07:11:42;312.40;;;26.23;;
12135;SDS011;6131;56.420;15.548;2024-02-14T07:14:10;271.30;;;23.77;;
12135;SDS011;6131;56.420;15.548;2024-02-14T07:16:36;317.53;;;23.77;;
12135;SDS011;6131;56.420;15.548;2024-02-14T07:19:02;116.60;;;18.47;;
12135;SDS011;6131;56.420;15.548;2024-02-14T07:21:28;239.20;;;22.00;;
12135;SDS011;6131;56.420;15.548;2024-02-14T07:23:55;180.47;;;19.27;;
12135;SDS011;6131;56.420;15.548;2024-02-14T07:26:21;117.20;;;18.37;;
12135;SDS011;6131;56.420;15.548;2024-02-14T07:28:47;207.17;;;18.77;;
12135;SDS011;6131;56.420;15.548;2024-02-14T07:31:13;183.37;;;19.43;;
12135;SDS011;6131;56.420;15.548;2024-02-14T07:33:39;97.07;;;17.20;;
12135;SDS011;6131;56.420;15.548;2024-02-14T07:36:05;157.57;;;18.87;;
12135;SDS011;6131;56.420;15.548;2024-02-14T07:38:31;181.07;;;18.00;;
12135;SDS011;6131;56.420;15.548;2024-02-14T07:40:57;254.83;;;21.63;;
12135;SDS011;6131;56.420;15.548;2024-02-14T07:43:22;126.33;;;17.53;;
12135;SDS011;6131;56.420;15.548;2024-02-14T07:45:48;125.33;;;15.60;;
12135;SDS011;6131;56.420;15.548;2024-02-14T07:48:15;323.60;;;24.87;;
12135;SDS011;6131;56.420;15.548;2024-02-14T07:50:41;203.83;;;20.67;;
12135;SDS011;6131;56.420;15.548;2024-02-14T07:53:07;220.23;;;20.47;;
12135;SDS011;6131;56.420;15.548;2024-02-14T07:55:33;76.73;;;15.07;;
12135;SDS011;6131;56.420;15.548;2024-02-14T07:57:59;330.03;;;25.93;;
12135;SDS011;6131;56.420;15.548;2024-02-14T08:00:25;235.83;;;22.63;;
12135;SDS011;6131;56.420;15.548;2024-02-14T08:02:51;191.03;;;20.23;;
12135;SDS011;6131;56.420;15.548;2024-02-14T08:05:17;238.30;;;21.00;;
12135;SDS011;6131;56.420;15.548;2024-02-14T08:07:44;93.67;;;16.07;;
12135;SDS011;6131;56.420;15.548;2024-02-14T08:10:11;129.50;;;18.40;;
12135;SDS011;6131;56.420;15.548;2024-02-14T08:12:37;243.00;;;19.57;;
12135;SDS011;6131;56.420;15.548;2024-02-14T08:15:03;96.03;;;15.77;;
12135;SDS011;6131;56.420;15.548;2024-02-14T08:17:31;90.87;;;16.33;;
12135;SDS011;6131;56.420;15.548;2024-02-14T08:19:58;266.43;;;21.30;;
12135;SDS011;6131;56.420;15.548;2024-02-14T08:22:25;128.83;;;15.90;;
12135;SDS011;6131;56.420;15.548;2024-02-14T08:24:52;103.77;;;13.73;;
12135;SDS011;6131;56.420;15.548;2024-02-14T08:27:18;139.13;;;17.37;;
12135;SDS011;6131;56.420;15.548;2024-02-14T08:29:44;239.53;;;20.50;;
12135;SDS011;6131;56.420;15.548;2024-02-14T08:32:10;101.23;;;16.43;;
12135;SDS011;6131;56.420;15.548;2024-02-14T08:34:36;195.87;;;19.57;;
12135;SDS011;6131;56.420;15.548;2024-02-14T08:37:02;109.57;;;17.57;;
12135;SDS011;6131;56.420;15.548;2024-02-14T08:39:28;226.77;;;20.83;;
12135;SDS011;6131;56.420;15.548;2024-02-14T08:41:54;211.97;;;17.17;;
12135;SDS011;6131;56.420;15.548;2024-02-14T08:44:20;161.83;;;17.43;;
12135;SDS011;6131;56.420;15.548;2024-02-14T08:46:46;62.83;;;14.10;;
12135;SDS011;6131;56.420;15.548;2024-02-14T08:49:14;78.27;;;13.23;;
12135;SDS011;6131;56.420;15.548;2024-02-14T08:51:40;68.17;;;12.50;;
12135;SDS011;6131;56.420;15.548;2024-02-14T08:54:08;87.53;;;14.83;;
12135;SDS011;6131;56.420;15.548;2024-02-14T08:56:35;171.50;;;17.63;;
12135;SDS011;6131;56.420;15.548;2024-02-14T08:59:02;193.73;;;19.27;;
12135;SDS011;6131;56.420;15.548;2024-02-14T09:01:29;47.27;;;12.43;;
12135;SDS011;6131;56.420;15.548;2024-02-14T09:03:55;98.03;;;14.03;;
12135;SDS011;6131;56.420;15.548;2024-02-14T09:06:21;60.73;;;13.13;;
12135;SDS011;6131;56.420;15.548;2024-02-14T09:08:47;56.17;;;13.40;;
12135;SDS011;6131;56.420;15.548;2024-02-14T09:11:13;58.60;;;15.07;;
12135;SDS011;6131;56.420;15.548;2024-02-14T09:13:39;138.17;;;17.53;;
12135;SDS011;6131;56.420;15.548;2024-02-14T09:16:06;75.50;;;14.70;;
12135;SDS011;6131;56.420;15.548;2024-02-14T09:18:32;150.33;;;19.50;;
12135;SDS011;6131;56.420;15.548;2024-02-14T09:20:58;33.47;;;14.67;;
12135;SDS011;6131;56.420;15.548;2024-02-14T09:23:24;101.77;;;15.60;;
12135;SDS011;6131;56.420;15.548;2024-02-14T09:25:50;118.47;;;16.30;;
12135;SDS011;6131;56.420;15.548;2024-02-14T09:28:16;53.60;;;15.20;;
12135;SDS011;6131;56.420;15.548;2024-02-14T09:30:42;133.17;;;18.17;;
12135;SDS011;6131;56.420;15.548;2024-02-14T09:33:08;210.37;;;21.60;;
12135;SDS011;6131;56.420;15.548;2024-02-14T09:35:34;109.23;;;16.83;;
12135;SDS011;6131;56.420;15.548;2024-02-14T09:38:03;90.73;;;17.37;;
12135;SDS011;6131;56.420;15.548;2024-02-14T09:40:29;103.00;;;18.67;;
12135;SDS011;6131;56.420;15.548;2024-02-14T09:42:55;214.27;;;22.37;;
12135;SDS011;6131;56.420;15.548;2024-02-14T09:45:26;227.97;;;22.97;;
12135;SDS011;6131;56.420;15.548;2024-02-14T09:47:55;83.33;;;19.10;;
12135;SDS011;6131;56.420;15.548;2024-02-14T09:50:22;177.63;;;23.43;;
12135;SDS011;6131;56.420;15.548;2024-02-14T09:52:49;106.33;;;19.10;;
12135;SDS011;6131;56.420;15.548;2024-02-14T09:55:15;299.23;;;25.37;;
12135;SDS011;6131;56.420;15.548;2024-02-14T09:57:41;292.07;;;25.50;;
12135;SDS011;6131;56.420;15.548;2024-02-14T10:00:09;117.53;;;20.90;;
12135;SDS011;6131;56.420;15.548;2024-02-14T10:02:35;48.43;;;18.17;;
12135;SDS011;6131;56.420;15.548;2024-02-14T10:05:01;43.07;;;17.37;;
12135;SDS011;6131;56.420;15.548;2024-02-14T10:07:27;33.40;;;16.83;;
12135;SDS011;6131;56.420;15.548;2024-02-14T10:09:53;28.13;;;16.50;;
12135;SDS011;6131;56.420;15.548;2024-02-14T10:12:19;33.00;;;16.00;;
12135;SDS011;6131;56.420;15.548;2024-02-14T10:14:46;28.27;;;16.03;;
12135;SDS011;6131;56.420;15.548;2024-02-14T10:17:18;24.30;;;15.77;;
12135;SDS011;6131;56.420;15.548;2024-02-14T10:19:54;26.40;;;14.57;;
12135;SDS011;6131;56.420;15.548;2024-02-14T10:22:20;25.43;;;15.00;;
12135;SDS011;6131;56.420;15.548;2024-02-14T10:24:46;29.40;;;14.70;;
12135;SDS011;6131;56.420;15.548;2024-02-14T10:27:12;30.33;;;14.37;;
12135;SDS011;6131;56.420;15.548;2024-02-14T10:29:39;23.67;;;13.43;;
12135;SDS011;6131;56.420;15.548;2024-02-14T10:32:05;23.13;;;13.47;;
12135;SDS011;6131;56.420;15.548;2024-02-14T10:34:31;25.07;;;14.60;;
12135;SDS011;6131;56.420;15.548;2024-02-14T10:36:59;23.93;;;13.90;;
12135;SDS011;6131;56.420;15.548;2024-02-14T10:39:26;25.17;;;13.90;;
12135;SDS011;6131;56.420;15.548;2024-02-14T10:41:52;19.10;;;12.73;;
12135;SDS011;6131;56.420;15.548;2024-02-14T10:44:19;22.97;;;14.00;;
12135;SDS011;6131;56.420;15.548;2024-02-14T10:46:45;86.33;;;16.00;;
12135;SDS011;6131;56.420;15.548;2024-02-14T10:49:12;30.37;;;13.23;;
12135;SDS011;6131;56.420;15.548;2024-02-14T10:51:40;22.23;;;13.53;;
12135;SDS011;6131;56.420;15.548;2024-02-14T10:54:12;24.77;;;12.80;;
12135;SDS011;6131;56.420;15.548;2024-02-14T10:56:42;26.63;;;13.40;;
12135;SDS011;6131;56.420;15.548;2024-02-14T10:59:08;30.90;;;13.57;;
12135;SDS011;6131;56.420;15.548;2024-02-14T11:01:36;24.53;;;13.10;;
12135;SDS011;6131;56.420;15.548;2024-02-14T11:04:02;155.43;;;17.40;;
12135;SDS011;6131;56.420;15.548;2024-02-14T11:06:29;39.63;;;13.77;;
12135;SDS011;6131;56.420;15.548;2024-02-14T11:09:02;123.00;;;16.47;;
12135;SDS011;6131;56.420;15.548;2024-02-14T11:11:32;243.77;;;20.47;;
12135;SDS011;6131;56.420;15.548;2024-02-14T11:13:59;61.33;;;13.80;;
12135;SDS011;6131;56.420;15.548;2024-02-14T11:16:25;123.80;;;16.13;;
12135;SDS011;6131;56.420;15.548;2024-02-14T11:18:53;29.97;;;13.03;;
12135;SDS011;6131;56.420;15.548;2024-02-14T11:21:19;112.00;;;15.77;;
12135;SDS011;6131;56.420;15.548;2024-02-14T11:23:54;76.27;;;14.47;;
12135;SDS011;6131;56.420;15.548;2024-02-14T11:26:21;152.20;;;17.77;;
12135;SDS011;6131;56.420;15.548;2024-02-14T11:28:48;50.17;;;13.13;;
12135;SDS011;6131;56.420;15.548;2024-02-14T11:31:16;124.40;;;16.30;;
12135;SDS011;6131;56.420;15.548;2024-02-14T11:33:42;25.47;;;13.17;;
12135;SDS011;6131;56.420;15.548;2024-02-14T11:36:13;27.03;;;13.47;;
12135;SDS011;6131;56.420;15.548;2024-02-14T11:38:40;35.20;;;13.40;;
12135;SDS011;6131;56.420;15.548;2024-02-14T11:41:06;70.00;;;13.20;;
12135;SDS011;6131;56.420;15.548;2024-02-14T11:43:34;93.77;;;13.90;;
12135;SDS011;6131;56.420;15.548;2024-02-14T11:46:00;42.40;;;12.87;;
12135;SDS011;6131;56.420;15.548;2024-02-14T11:48:29;37.40;;;12.63;;
12135;SDS011;6131;56.420;15.548;2024-02-14T11:50:56;53.53;;;12.33;;
12135;SDS011;6131;56.420;15.548;2024-02-14T11:53:22;23.03;;;10.73;;
12135;SDS011;6131;56.420;15.548;2024-02-14T11:55:48;20.57;;;11.27;;
12135;SDS011;6131;56.420;15.548;2024-02-14T11:58:15;21.30;;;10.50;;
12135;SDS011;6131;56.420;15.548;2024-02-14T12:00:42;17.57;;;10.20;;
12135;SDS011;6131;56.420;15.548;2024-02-14T12:03:12;14.40;;;10.10;;
12135;SDS011;6131;56.420;15.548;2024-02-14T12:05:38;21.17;;;10.03;;
12135;SDS011;6131;56.420;15.548;2024-02-14T12:08:05;16.87;;;10.40;;
12135;SDS011;6131;56.420;15.548;2024-02-14T12:10:32;14.03;;;10.07;;
12135;SDS011;6131;56.420;15.548;2024-02-14T12:12:58;16.43;;;9.90;;
12135;SDS011;6131;56.420;15.548;2024-02-14T12:15:25;16.43;;;9.93;;
12135;SDS011;6131;56.420;15.548;2024-02-14T12:17:54;17.20;;;9.37;;
12135;SDS011;6131;56.420;15.548;2024-02-14T12:20:22;19.53;;;10.43;;
12135;SDS011;6131;56.420;15.548;2024-02-14T12:22:51;21.17;;;11.20;;
12135;SDS011;6131;56.420;15.548;2024-02-14T12:25:18;25.90;;;10.97;;
12135;SDS011;6131;56.420;15.548;2024-02-14T12:27:49;27.37;;;11.80;;
12135;SDS011;6131;56.420;15.548;2024-02-14T12:30:16;102.17;;;14.53;;
12135;SDS011;6131;56.420;15.548;2024-02-14T12:32:44;35.30;;;12.00;;
12135;SDS011;6131;56.420;15.548;2024-02-14T12:35:10;35.97;;;11.93;;
12135;SDS011;6131;56.420;15.548;2024-02-14T12:37:36;94.40;;;14.57;;
12135;SDS011;6131;56.420;15.548;2024-02-14T12:40:03;62.60;;;12.23;;
12135;SDS011;6131;56.420;15.548;2024-02-14T12:42:30;23.53;;;11.33;;
12135;SDS011;6131;56.420;15.548;2024-02-14T12:44:57;25.67;;;12.67;;
12135;SDS011;6131;56.420;15.548;2024-02-14T12:47:24;41.83;;;14.30;;
12135;SDS011;6131;56.420;15.548;2024-02-14T12:49:56;34.37;;;12.90;;
12135;SDS011;6131;56.420;15.548;2024-02-14T12:52:24;59.70;;;13.77;;
12135;SDS011;6131;56.420;15.548;2024-02-14T12:54:50;43.13;;;14.73;;
12135;SDS011;6131;56.420;15.548;2024-02-14T12:57:16;32.43;;;12.03;;
12135;SDS011;6131;56.420;15.548;2024-02-14T12:59:43;28.07;;;12.33;;
12135;SDS011;6131;56.420;15.548;2024-02-14T13:02:10;29.80;;;11.97;;
12135;SDS011;6131;56.420;15.548;2024-02-14T13:04:36;23.03;;;12.43;;
12135;SDS011;6131;56.420;15.548;2024-02-14T13:07:03;28.87;;;13.20;;
12135;SDS011;6131;56.420;15.548;2024-02-14T13:09:30;21.80;;;13.00;;
12135;SDS011;6131;56.420;15.548;2024-02-14T13:11:56;28.30;;;12.40;;
12135;SDS011;6131;56.420;15.548;2024-02-14T13:14:22;23.33;;;12.40;;
12135;SDS011;6131;56.420;15.548;2024-02-14T13:16:48;22.73;;;14.00;;
12135;SDS011;6131;56.420;15.548;2024-02-14T13:19:14;30.03;;;12.30;;
12135;SDS011;6131;56.420;15.548;2024-02-14T13:21:40;22.90;;;12.00;;
12135;SDS011;6131;56.420;15.548;2024-02-14T13:24:10;23.17;;;12.20;;
12135;SDS011;6131;56.420;15.548;2024-02-14T13:26:37;29.73;;;15.83;;
12135;SDS011;6131;56.420;15.548;2024-02-14T13:29:03;22.37;;;14.07;;
12135;SDS011;6131;56.420;15.548;2024-02-14T13:31:29;18.50;;;11.93;;
12135;SDS011;6131;56.420;15.548;2024-02-14T13:33:56;25.77;;;12.80;;
12135;SDS011;6131;56.420;15.548;2024-02-14T13:36:22;26.00;;;12.73;;
12135;SDS011;6131;56.420;15.548;2024-02-14T13:38:49;22.20;;;12.87;;
12135;SDS011;6131;56.420;15.548;2024-02-14T13:41:15;24.30;;;12.63;;
12135;SDS011;6131;56.420;15.548;2024-02-14T13:43:42;19.53;;;11.50;;
12135;SDS011;6131;56.420;15.548;2024-02-14T13:46:09;19.40;;;12.63;;
12135;SDS011;6131;56.420;15.548;2024-02-14T13:48:35;22.73;;;12.47;;
12135;SDS011;6131;56.420;15.548;2024-02-14T13:51:01;26.87;;;13.03;;
12135;SDS011;6131;56.420;15.548;2024-02-14T13:53:28;21.23;;;13.23;;
12135;SDS011;6131;56.420;15.548;2024-02-14T13:55:54;23.80;;;12.80;;
12135;SDS011;6131;56.420;15.548;2024-02-14T13:58:21;21.40;;;12.73;;
12135;SDS011;6131;56.420;15.548;2024-02-14T14:00:47;27.60;;;12.50;;
12135;SDS011;6131;56.420;15.548;2024-02-14T14:03:13;17.70;;;11.23;;
12135;SDS011;6131;56.420;15.548;2024-02-14T14:05:39;22.33;;;11.87;;
12135;SDS011;6131;56.420;15.548;2024-02-14T14:08:05;24.30;;;12.13;;
12135;SDS011;6131;56.420;15.548;2024-02-14T14:10:31;23.90;;;12.60;;
12135;SDS011;6131;56.420;15.548;2024-02-14T14:12:57;25.43;;;12.07;;
12135;SDS011;6131;56.420;15.548;2024-02-14T14:26:12;23.50;;;12.47;;
12135;SDS011;6131;56.420;15.548;2024-02-14T14:28:38;15.87;;;10.63;;